sensor_id;sensor_type;location;lat;lon;timestamp;P1;durP1;ratioP1;P2;durP2;ratioP2
15228;SDS011;7717;47.792;12.076;2022-12-18T00:01:04;28.13;;;15.17;;
15228;SDS011;7717;47.792;12.076;2022-12-18T00:03:39;27.67;;;14.73;;
15228;SDS011;7717;47.792;12.076;2022-12-18T00:06:04;31.37;;;16.00;;
15228;SDS011;7717;47.792;12.076;2022-12-18T00:08:29;31.07;;;16.43;;
15228;SDS011;7717;47.792;12.076;2022-12-18T00:10:55;32.27;;;16.20;;
15228;SDS011;7717;47.792;12.076;2022-12-18T00:13:20;27.07;;;15.63;;
15228;SDS011;7717;47.792;12.076;2022-12-18T00:15:46;32.50;;;17.03;;
15228;SDS011;7717;47.792;12.076;2022-12-18T00:18:11;31.97;;;16.83;;
15228;SDS011;7717;47.792;12.076;2022-12-18T00:20:37;34.27;;;16.13;;
15228;SDS011;7717;47.792;12.076;2022-12-18T00:23:04;31.43;;;15.20;;
15228;SDS011;7717;47.792;12.076;2022-12-18T00:25:32;33.90;;;17.90;;
15228;SDS011;7717;47.792;12.076;2022-12-18T00:27:59;35.80;;;19.20;;
15228;SDS011;7717;47.792;12.076;2022-12-18T00:30:24;28.97;;;14.97;;
15228;SDS011;7717;47.792;12.076;2022-12-18T00:32:49;32.40;;;16.13;;
15228;SDS011;7717;47.792;12.076;2022-12-18T00:35:15;29.77;;;15.93;;
15228;SDS011;7717;47.792;12.076;2022-12-18T00:37:40;27.47;;;14.37;;
15228;SDS011;7717;47.792;12.076;2022-12-18T00:40:06;32.30;;;15.10;;
15228;SDS011;7717;47.792;12.076;2022-12-18T00:42:32;27.63;;;14.83;;
15228;SDS011;7717;47.792;12.076;2022-12-18T00:45:16;26.40;;;12.77;;
15228;SDS011;7717;47.792;12.076;2022-12-18T00:47:41;24.20;;;13.73;;
15228;SDS011;7717;47.792;12.076;2022-12-18T00:50:07;28.80;;;13.80;;
15228;SDS011;7717;47.792;12.076;2022-12-18T00:52:33;27.27;;;15.20;;
15228;SDS011;7717;47.792;12.076;2022-12-18T00:54:58;27.73;;;15.00;;
15228;SDS011;7717;47.792;12.076;2022-12-18T00:57:23;25.97;;;13.87;;
15228;SDS011;7717;47.792;12.076;2022-12-18T00:59:49;33.30;;;16.70;;
15228;SDS011;7717;47.792;12.076;2022-12-18T01:02:14;29.17;;;15.10;;
15228;SDS011;7717;47.792;12.076;2022-12-18T01:04:40;21.90;;;11.17;;
15228;SDS011;7717;47.792;12.076;2022-12-18T01:07:05;21.23;;;12.70;;
15228;SDS011;7717;47.792;12.076;2022-12-18T01:09:30;24.90;;;12.77;;
15228;SDS011;7717;47.792;12.076;2022-12-18T01:11:56;26.93;;;15.13;;
15228;SDS011;7717;47.792;12.076;2022-12-18T01:14:21;26.47;;;15.57;;
15228;SDS011;7717;47.792;12.076;2022-12-18T01:16:46;23.20;;;13.20;;
15228;SDS011;7717;47.792;12.076;2022-12-18T01:19:12;23.47;;;13.93;;
15228;SDS011;7717;47.792;12.076;2022-12-18T01:21:37;24.23;;;11.33;;
15228;SDS011;7717;47.792;12.076;2022-12-18T01:24:03;25.63;;;12.43;;
15228;SDS011;7717;47.792;12.076;2022-12-18T01:26:29;24.63;;;13.97;;
15228;SDS011;7717;47.792;12.076;2022-12-18T01:28:57;19.80;;;11.83;;
15228;SDS011;7717;47.792;12.076;2022-12-18T01:31:27;24.63;;;11.23;;
15228;SDS011;7717;47.792;12.076;2022-12-18T01:33:55;26.23;;;13.47;;
15228;SDS011;7717;47.792;12.076;2022-12-18T01:38:46;25.63;;;12.93;;
15228;SDS011;7717;47.792;12.076;2022-12-18T01:41:14;24.00;;;12.53;;
15228;SDS011;7717;47.792;12.076;2022-12-18T01:43:46;22.23;;;11.70;;
15228;SDS011;7717;47.792;12.076;2022-12-18T01:46:14;19.63;;;11.97;;
15228;SDS011;7717;47.792;12.076;2022-12-18T01:48:40;22.00;;;11.13;;
15228;SDS011;7717;47.792;12.076;2022-12-18T01:51:06;24.07;;;12.57;;
15228;SDS011;7717;47.792;12.076;2022-12-18T01:53:35;24.70;;;12.53;;
15228;SDS011;7717;47.792;12.076;2022-12-18T01:56:02;23.27;;;11.67;;
15228;SDS011;7717;47.792;12.076;2022-12-18T01:59:13;17.63;;;11.07;;
15228;SDS011;7717;47.792;12.076;2022-12-18T02:01:19;25.37;;;12.77;;
15228;SDS011;7717;47.792;12.076;2022-12-18T02:03:46;20.83;;;11.80;;
15228;SDS011;7717;47.792;12.076;2022-12-18T02:06:24;24.27;;;10.90;;
15228;SDS011;7717;47.792;12.076;2022-12-18T02:09:41;23.67;;;12.60;;
15228;SDS011;7717;47.792;12.076;2022-12-18T02:15:00;22.50;;;10.27;;
15228;SDS011;7717;47.792;12.076;2022-12-18T02:23:10;17.80;;;10.07;;
15228;SDS011;7717;47.792;12.076;2022-12-18T02:28:28;27.27;;;12.40;;
15228;SDS011;7717;47.792;12.076;2022-12-18T02:30:59;24.70;;;12.40;;
15228;SDS011;7717;47.792;12.076;2022-12-18T02:33:27;27.23;;;13.00;;
15228;SDS011;7717;47.792;12.076;2022-12-18T02:35:55;25.83;;;12.33;;
15228;SDS011;7717;47.792;12.076;2022-12-18T02:38:23;23.57;;;11.90;;
15228;SDS011;7717;47.792;12.076;2022-12-18T02:40:50;24.40;;;12.53;;
15228;SDS011;7717;47.792;12.076;2022-12-18T02:43:18;21.20;;;11.33;;
15228;SDS011;7717;47.792;12.076;2022-12-18T02:45:47;24.00;;;11.90;;
15228;SDS011;7717;47.792;12.076;2022-12-18T02:48:15;16.43;;;9.77;;
15228;SDS011;7717;47.792;12.076;2022-12-18T02:50:45;21.87;;;11.27;;
15228;SDS011;7717;47.792;12.076;2022-12-18T02:53:29;22.97;;;11.47;;
15228;SDS011;7717;47.792;12.076;2022-12-18T02:56:05;24.03;;;11.83;;
15228;SDS011;7717;47.792;12.076;2022-12-18T03:01:41;20.47;;;11.63;;
15228;SDS011;7717;47.792;12.076;2022-12-18T03:04:20;24.20;;;12.57;;
15228;SDS011;7717;47.792;12.076;2022-12-18T03:06:54;18.70;;;10.43;;
15228;SDS011;7717;47.792;12.076;2022-12-18T03:09:29;22.50;;;11.70;;
15228;SDS011;7717;47.792;12.076;2022-12-18T03:12:02;23.30;;;11.77;;
15228;SDS011;7717;47.792;12.076;2022-12-18T03:15:35;26.67;;;12.43;;
15228;SDS011;7717;47.792;12.076;2022-12-18T03:17:46;21.17;;;11.33;;
15228;SDS011;7717;47.792;12.076;2022-12-18T03:20:17;20.77;;;10.97;;
15228;SDS011;7717;47.792;12.076;2022-12-18T03:22:46;22.03;;;12.50;;
15228;SDS011;7717;47.792;12.076;2022-12-18T03:25:15;24.60;;;12.83;;
15228;SDS011;7717;47.792;12.076;2022-12-18T03:27:43;28.47;;;12.77;;
15228;SDS011;7717;47.792;12.076;2022-12-18T03:30:13;26.40;;;14.03;;
15228;SDS011;7717;47.792;12.076;2022-12-18T03:35:10;27.13;;;14.27;;
15228;SDS011;7717;47.792;12.076;2022-12-18T03:37:40;23.53;;;12.67;;
15228;SDS011;7717;47.792;12.076;2022-12-18T03:40:06;21.50;;;12.57;;
15228;SDS011;7717;47.792;12.076;2022-12-18T03:42:51;21.73;;;11.90;;
15228;SDS011;7717;47.792;12.076;2022-12-18T03:45:34;19.90;;;9.77;;
15228;SDS011;7717;47.792;12.076;2022-12-18T03:48:17;22.70;;;11.67;;
15228;SDS011;7717;47.792;12.076;2022-12-18T03:50:59;19.53;;;10.33;;
15228;SDS011;7717;47.792;12.076;2022-12-18T03:53:38;18.50;;;10.57;;
15228;SDS011;7717;47.792;12.076;2022-12-18T03:56:09;25.53;;;10.10;;
15228;SDS011;7717;47.792;12.076;2022-12-18T03:58:38;26.17;;;12.67;;
15228;SDS011;7717;47.792;12.076;2022-12-18T04:01:07;25.83;;;11.07;;
15228;SDS011;7717;47.792;12.076;2022-12-18T04:03:34;22.57;;;10.43;;
15228;SDS011;7717;47.792;12.076;2022-12-18T04:06:01;22.07;;;10.60;;
15228;SDS011;7717;47.792;12.076;2022-12-18T04:08:27;21.67;;;10.30;;
15228;SDS011;7717;47.792;12.076;2022-12-18T04:10:54;21.73;;;11.07;;
15228;SDS011;7717;47.792;12.076;2022-12-18T04:13:24;19.03;;;9.77;;
15228;SDS011;7717;47.792;12.076;2022-12-18T04:15:52;19.80;;;10.43;;
15228;SDS011;7717;47.792;12.076;2022-12-18T04:18:18;19.70;;;10.87;;
15228;SDS011;7717;47.792;12.076;2022-12-18T04:20:43;11.33;;;6.77;;
15228;SDS011;7717;47.792;12.076;2022-12-18T04:23:08;24.70;;;13.17;;
15228;SDS011;7717;47.792;12.076;2022-12-18T04:25:34;0.97;;;0.80;;
15228;SDS011;7717;47.792;12.076;2022-12-18T04:27:59;12.30;;;7.10;;
15228;SDS011;7717;47.792;12.076;2022-12-18T04:30:24;15.97;;;10.03;;
15228;SDS011;7717;47.792;12.076;2022-12-18T04:32:50;20.70;;;10.80;;
15228;SDS011;7717;47.792;12.076;2022-12-18T04:35:15;18.20;;;9.30;;
15228;SDS011;7717;47.792;12.076;2022-12-18T04:37:40;19.97;;;11.30;;
15228;SDS011;7717;47.792;12.076;2022-12-18T04:40:06;16.43;;;10.10;;
15228;SDS011;7717;47.792;12.076;2022-12-18T04:42:32;20.60;;;10.30;;
15228;SDS011;7717;47.792;12.076;2022-12-18T04:44:57;16.37;;;9.53;;
15228;SDS011;7717;47.792;12.076;2022-12-18T04:47:22;18.87;;;10.03;;
15228;SDS011;7717;47.792;12.076;2022-12-18T04:49:48;23.07;;;10.67;;
15228;SDS011;7717;47.792;12.076;2022-12-18T04:52:13;16.03;;;8.67;;
15228;SDS011;7717;47.792;12.076;2022-12-18T04:54:39;26.53;;;11.80;;
15228;SDS011;7717;47.792;12.076;2022-12-18T04:57:04;23.07;;;10.83;;
15228;SDS011;7717;47.792;12.076;2022-12-18T04:59:29;23.17;;;12.37;;
15228;SDS011;7717;47.792;12.076;2022-12-18T05:01:55;20.83;;;11.53;;
15228;SDS011;7717;47.792;12.076;2022-12-18T05:04:20;19.73;;;10.10;;
15228;SDS011;7717;47.792;12.076;2022-12-18T05:06:46;22.37;;;10.17;;
15228;SDS011;7717;47.792;12.076;2022-12-18T05:09:11;24.60;;;10.73;;
15228;SDS011;7717;47.792;12.076;2022-12-18T05:11:36;18.80;;;10.63;;
15228;SDS011;7717;47.792;12.076;2022-12-18T05:14:02;21.10;;;11.03;;
15228;SDS011;7717;47.792;12.076;2022-12-18T05:16:27;21.93;;;11.77;;
15228;SDS011;7717;47.792;12.076;2022-12-18T05:18:52;26.97;;;12.67;;
15228;SDS011;7717;47.792;12.076;2022-12-18T05:21:18;21.03;;;11.83;;
15228;SDS011;7717;47.792;12.076;2022-12-18T05:23:43;16.83;;;10.37;;
15228;SDS011;7717;47.792;12.076;2022-12-18T05:26:08;24.13;;;11.27;;
15228;SDS011;7717;47.792;12.076;2022-12-18T05:28:39;24.93;;;12.67;;
15228;SDS011;7717;47.792;12.076;2022-12-18T05:31:04;23.40;;;13.10;;
15228;SDS011;7717;47.792;12.076;2022-12-18T05:33:31;16.77;;;10.80;;
15228;SDS011;7717;47.792;12.076;2022-12-18T05:35:59;28.20;;;15.67;;
15228;SDS011;7717;47.792;12.076;2022-12-18T05:38:29;30.40;;;15.50;;
15228;SDS011;7717;47.792;12.076;2022-12-18T05:40:55;21.90;;;12.83;;
15228;SDS011;7717;47.792;12.076;2022-12-18T05:43:21;25.43;;;14.57;;
15228;SDS011;7717;47.792;12.076;2022-12-18T05:45:50;29.43;;;15.27;;
15228;SDS011;7717;47.792;12.076;2022-12-18T05:48:16;27.43;;;14.77;;
15228;SDS011;7717;47.792;12.076;2022-12-18T05:50:42;26.07;;;13.63;;
15228;SDS011;7717;47.792;12.076;2022-12-18T05:53:10;29.73;;;16.73;;
15228;SDS011;7717;47.792;12.076;2022-12-18T05:55:38;31.03;;;17.57;;
15228;SDS011;7717;47.792;12.076;2022-12-18T05:58:05;32.93;;;17.60;;
15228;SDS011;7717;47.792;12.076;2022-12-18T06:00:33;28.17;;;16.10;;
15228;SDS011;7717;47.792;12.076;2022-12-18T06:03:00;28.10;;;15.07;;
15228;SDS011;7717;47.792;12.076;2022-12-18T06:05:26;16.13;;;9.93;;
15228;SDS011;7717;47.792;12.076;2022-12-18T06:07:52;23.37;;;13.13;;
15228;SDS011;7717;47.792;12.076;2022-12-18T06:10:17;37.10;;;17.30;;
15228;SDS011;7717;47.792;12.076;2022-12-18T06:12:42;31.37;;;15.63;;
15228;SDS011;7717;47.792;12.076;2022-12-18T06:15:08;32.10;;;16.37;;
15228;SDS011;7717;47.792;12.076;2022-12-18T06:17:33;59.30;;;25.97;;
15228;SDS011;7717;47.792;12.076;2022-12-18T06:20:00;55.10;;;24.93;;
15228;SDS011;7717;47.792;12.076;2022-12-18T06:22:26;51.07;;;24.43;;
15228;SDS011;7717;47.792;12.076;2022-12-18T06:24:52;49.77;;;22.17;;
15228;SDS011;7717;47.792;12.076;2022-12-18T06:27:18;48.17;;;22.67;;
15228;SDS011;7717;47.792;12.076;2022-12-18T06:29:44;46.40;;;21.63;;
15228;SDS011;7717;47.792;12.076;2022-12-18T06:32:09;49.87;;;22.80;;
15228;SDS011;7717;47.792;12.076;2022-12-18T06:34:36;44.53;;;21.53;;
15228;SDS011;7717;47.792;12.076;2022-12-18T06:37:02;38.10;;;19.93;;
15228;SDS011;7717;47.792;12.076;2022-12-18T06:39:27;43.23;;;22.40;;
15228;SDS011;7717;47.792;12.076;2022-12-18T06:41:53;42.77;;;20.27;;
15228;SDS011;7717;47.792;12.076;2022-12-18T06:44:18;32.67;;;19.53;;
15228;SDS011;7717;47.792;12.076;2022-12-18T06:46:44;41.97;;;21.43;;
15228;SDS011;7717;47.792;12.076;2022-12-18T06:49:09;47.93;;;22.07;;
15228;SDS011;7717;47.792;12.076;2022-12-18T06:51:35;33.30;;;16.57;;
15228;SDS011;7717;47.792;12.076;2022-12-18T06:54:01;35.37;;;17.73;;
15228;SDS011;7717;47.792;12.076;2022-12-18T06:56:26;22.87;;;12.90;;
15228;SDS011;7717;47.792;12.076;2022-12-18T06:58:52;40.63;;;21.93;;
15228;SDS011;7717;47.792;12.076;2022-12-18T07:01:18;41.93;;;25.30;;
15228;SDS011;7717;47.792;12.076;2022-12-18T07:03:43;45.43;;;22.93;;
15228;SDS011;7717;47.792;12.076;2022-12-18T07:06:16;37.53;;;19.33;;
15228;SDS011;7717;47.792;12.076;2022-12-18T07:08:43;40.60;;;21.83;;
15228;SDS011;7717;47.792;12.076;2022-12-18T07:11:09;35.93;;;22.33;;
15228;SDS011;7717;47.792;12.076;2022-12-18T07:13:35;41.57;;;22.40;;
15228;SDS011;7717;47.792;12.076;2022-12-18T07:16:10;42.83;;;23.27;;
15228;SDS011;7717;47.792;12.076;2022-12-18T07:18:37;39.87;;;21.63;;
15228;SDS011;7717;47.792;12.076;2022-12-18T07:21:07;36.00;;;20.63;;
15228;SDS011;7717;47.792;12.076;2022-12-18T07:23:34;38.90;;;20.73;;
15228;SDS011;7717;47.792;12.076;2022-12-18T07:26:10;38.53;;;20.97;;
15228;SDS011;7717;47.792;12.076;2022-12-18T07:28:37;30.93;;;17.60;;
15228;SDS011;7717;47.792;12.076;2022-12-18T07:31:04;33.57;;;17.17;;
15228;SDS011;7717;47.792;12.076;2022-12-18T07:33:31;32.73;;;16.87;;
15228;SDS011;7717;47.792;12.076;2022-12-18T07:36:04;31.00;;;17.97;;
15228;SDS011;7717;47.792;12.076;2022-12-18T07:38:31;39.33;;;18.20;;
15228;SDS011;7717;47.792;12.076;2022-12-18T07:41:01;35.27;;;17.40;;
15228;SDS011;7717;47.792;12.076;2022-12-18T07:43:27;27.67;;;13.50;;
15228;SDS011;7717;47.792;12.076;2022-12-18T07:45:53;44.17;;;23.73;;
15228;SDS011;7717;47.792;12.076;2022-12-18T07:48:18;48.30;;;25.77;;
15228;SDS011;7717;47.792;12.076;2022-12-18T07:50:44;60.67;;;32.23;;
15228;SDS011;7717;47.792;12.076;2022-12-18T07:53:09;52.27;;;28.90;;
15228;SDS011;7717;47.792;12.076;2022-12-18T07:55:34;54.40;;;26.77;;
15228;SDS011;7717;47.792;12.076;2022-12-18T07:58:01;48.10;;;24.43;;
15228;SDS011;7717;47.792;12.076;2022-12-18T08:00:27;50.33;;;27.07;;
15228;SDS011;7717;47.792;12.076;2022-12-18T08:02:53;38.93;;;22.50;;
15228;SDS011;7717;47.792;12.076;2022-12-18T08:05:18;37.27;;;18.00;;
15228;SDS011;7717;47.792;12.076;2022-12-18T08:07:45;39.20;;;21.47;;
15228;SDS011;7717;47.792;12.076;2022-12-18T08:10:11;35.27;;;18.77;;
15228;SDS011;7717;47.792;12.076;2022-12-18T08:12:36;34.63;;;18.70;;
15228;SDS011;7717;47.792;12.076;2022-12-18T08:15:02;33.47;;;19.17;;
15228;SDS011;7717;47.792;12.076;2022-12-18T08:17:27;28.73;;;15.93;;
15228;SDS011;7717;47.792;12.076;2022-12-18T08:19:53;35.47;;;19.60;;
15228;SDS011;7717;47.792;12.076;2022-12-18T08:22:18;33.90;;;17.37;;
15228;SDS011;7717;47.792;12.076;2022-12-18T08:24:43;27.40;;;14.07;;
15228;SDS011;7717;47.792;12.076;2022-12-18T08:27:09;25.60;;;13.60;;
15228;SDS011;7717;47.792;12.076;2022-12-18T08:29:35;27.87;;;13.77;;
15228;SDS011;7717;47.792;12.076;2022-12-18T08:32:00;27.87;;;15.27;;
15228;SDS011;7717;47.792;12.076;2022-12-18T08:34:26;33.13;;;15.17;;
15228;SDS011;7717;47.792;12.076;2022-12-18T08:36:51;30.10;;;16.43;;
15228;SDS011;7717;47.792;12.076;2022-12-18T08:39:16;23.77;;;13.53;;
15228;SDS011;7717;47.792;12.076;2022-12-18T08:41:42;23.03;;;13.30;;
15228;SDS011;7717;47.792;12.076;2022-12-18T08:44:07;23.13;;;12.87;;
15228;SDS011;7717;47.792;12.076;2022-12-18T08:46:51;23.13;;;12.10;;
15228;SDS011;7717;47.792;12.076;2022-12-18T08:49:17;23.70;;;12.67;;
15228;SDS011;7717;47.792;12.076;2022-12-18T08:51:42;23.50;;;13.23;;
15228;SDS011;7717;47.792;12.076;2022-12-18T08:54:08;22.83;;;12.60;;
15228;SDS011;7717;47.792;12.076;2022-12-18T08:56:36;24.07;;;12.60;;
15228;SDS011;7717;47.792;12.076;2022-12-18T08:59:01;25.03;;;12.60;;
15228;SDS011;7717;47.792;12.076;2022-12-18T09:01:27;24.97;;;12.37;;
15228;SDS011;7717;47.792;12.076;2022-12-18T09:03:53;24.60;;;13.43;;
15228;SDS011;7717;47.792;12.076;2022-12-18T09:06:20;27.93;;;14.13;;
15228;SDS011;7717;47.792;12.076;2022-12-18T09:08:46;23.03;;;12.47;;
15228;SDS011;7717;47.792;12.076;2022-12-18T09:11:22;22.47;;;12.17;;
15228;SDS011;7717;47.792;12.076;2022-12-18T09:13:49;28.27;;;15.23;;
15228;SDS011;7717;47.792;12.076;2022-12-18T09:16:15;20.27;;;12.70;;
15228;SDS011;7717;47.792;12.076;2022-12-18T09:18:40;26.37;;;14.20;;
15228;SDS011;7717;47.792;12.076;2022-12-18T09:21:10;24.43;;;12.90;;
15228;SDS011;7717;47.792;12.076;2022-12-18T09:23:51;24.60;;;13.63;;
15228;SDS011;7717;47.792;12.076;2022-12-18T09:26:18;22.73;;;14.13;;
15228;SDS011;7717;47.792;12.076;2022-12-18T09:28:44;26.20;;;13.67;;
15228;SDS011;7717;47.792;12.076;2022-12-18T09:31:10;25.57;;;13.50;;
15228;SDS011;7717;47.792;12.076;2022-12-18T09:33:37;22.73;;;11.73;;
15228;SDS011;7717;47.792;12.076;2022-12-18T09:36:04;17.93;;;9.77;;
15228;SDS011;7717;47.792;12.076;2022-12-18T09:38:31;27.13;;;13.03;;
15228;SDS011;7717;47.792;12.076;2022-12-18T09:40:59;30.90;;;16.20;;
15228;SDS011;7717;47.792;12.076;2022-12-18T09:43:35;29.10;;;13.60;;
15228;SDS011;7717;47.792;12.076;2022-12-18T09:46:06;23.03;;;13.43;;
15228;SDS011;7717;47.792;12.076;2022-12-18T09:48:41;24.13;;;12.30;;
15228;SDS011;7717;47.792;12.076;2022-12-18T09:51:22;25.40;;;12.60;;
15228;SDS011;7717;47.792;12.076;2022-12-18T09:53:55;21.53;;;12.60;;
15228;SDS011;7717;47.792;12.076;2022-12-18T09:56:24;25.97;;;12.83;;
15228;SDS011;7717;47.792;12.076;2022-12-18T09:59:00;26.17;;;13.53;;
15228;SDS011;7717;47.792;12.076;2022-12-18T10:01:27;28.53;;;14.80;;
15228;SDS011;7717;47.792;12.076;2022-12-18T10:03:54;19.67;;;9.60;;
15228;SDS011;7717;47.792;12.076;2022-12-18T10:12:04;27.33;;;16.13;;
15228;SDS011;7717;47.792;12.076;2022-12-18T10:17:33;27.97;;;14.40;;
15228;SDS011;7717;47.792;12.076;2022-12-18T10:20:29;27.80;;;15.43;;
15228;SDS011;7717;47.792;12.076;2022-12-18T10:28:32;25.23;;;14.17;;
15228;SDS011;7717;47.792;12.076;2022-12-18T10:31:00;27.03;;;14.37;;
15228;SDS011;7717;47.792;12.076;2022-12-18T10:33:29;28.70;;;13.57;;
15228;SDS011;7717;47.792;12.076;2022-12-18T10:35:57;25.30;;;13.80;;
15228;SDS011;7717;47.792;12.076;2022-12-18T10:38:27;25.93;;;13.37;;
15228;SDS011;7717;47.792;12.076;2022-12-18T10:40:56;25.30;;;14.37;;
15228;SDS011;7717;47.792;12.076;2022-12-18T10:43:37;24.20;;;12.27;;
15228;SDS011;7717;47.792;12.076;2022-12-18T10:46:05;24.60;;;13.70;;
15228;SDS011;7717;47.792;12.076;2022-12-18T10:48:50;20.77;;;12.33;;
15228;SDS011;7717;47.792;12.076;2022-12-18T10:51:26;26.23;;;14.67;;
15228;SDS011;7717;47.792;12.076;2022-12-18T10:53:59;26.37;;;13.60;;
15228;SDS011;7717;47.792;12.076;2022-12-18T10:56:27;22.57;;;13.57;;
15228;SDS011;7717;47.792;12.076;2022-12-18T10:59:05;25.97;;;14.47;;
15228;SDS011;7717;47.792;12.076;2022-12-18T11:01:54;24.87;;;13.87;;
15228;SDS011;7717;47.792;12.076;2022-12-18T11:04:27;22.97;;;13.73;;
15228;SDS011;7717;47.792;12.076;2022-12-18T11:07:07;22.00;;;11.70;;
15228;SDS011;7717;47.792;12.076;2022-12-18T11:09:34;22.83;;;12.83;;
15228;SDS011;7717;47.792;12.076;2022-12-18T11:12:02;23.00;;;12.73;;
15228;SDS011;7717;47.792;12.076;2022-12-18T11:14:32;20.57;;;12.70;;
15228;SDS011;7717;47.792;12.076;2022-12-18T11:17:00;22.53;;;12.67;;
15228;SDS011;7717;47.792;12.076;2022-12-18T11:21:56;24.77;;;12.93;;
15228;SDS011;7717;47.792;12.076;2022-12-18T11:24:35;21.53;;;12.27;;
15228;SDS011;7717;47.792;12.076;2022-12-18T11:27:02;23.50;;;13.03;;
15228;SDS011;7717;47.792;12.076;2022-12-18T11:29:32;22.03;;;12.23;;
15228;SDS011;7717;47.792;12.076;2022-12-18T11:35:17;22.87;;;13.13;;
15228;SDS011;7717;47.792;12.076;2022-12-18T11:37:52;27.50;;;14.03;;
15228;SDS011;7717;47.792;12.076;2022-12-18T11:40:26;23.70;;;13.77;;
15228;SDS011;7717;47.792;12.076;2022-12-18T11:42:58;26.30;;;14.00;;
15228;SDS011;7717;47.792;12.076;2022-12-18T11:45:33;27.57;;;14.37;;
15228;SDS011;7717;47.792;12.076;2022-12-18T11:48:24;25.63;;;14.93;;
15228;SDS011;7717;47.792;12.076;2022-12-18T11:50:54;22.03;;;13.20;;
15228;SDS011;7717;47.792;12.076;2022-12-18T11:53:22;22.97;;;13.67;;
15228;SDS011;7717;47.792;12.076;2022-12-18T11:59:03;27.03;;;14.87;;
15228;SDS011;7717;47.792;12.076;2022-12-18T12:21:12;29.10;;;16.03;;
15228;SDS011;7717;47.792;12.076;2022-12-18T12:26:27;22.93;;;11.90;;
15228;SDS011;7717;47.792;12.076;2022-12-18T12:31:54;25.67;;;13.33;;
15228;SDS011;7717;47.792;12.076;2022-12-18T12:40:05;23.37;;;12.73;;
15228;SDS011;7717;47.792;12.076;2022-12-18T12:42:41;29.50;;;16.50;;
15228;SDS011;7717;47.792;12.076;2022-12-18T12:45:43;28.27;;;15.57;;
15228;SDS011;7717;47.792;12.076;2022-12-18T12:51:20;27.57;;;14.67;;
15228;SDS011;7717;47.792;12.076;2022-12-18T12:53:48;29.83;;;14.87;;
15228;SDS011;7717;47.792;12.076;2022-12-18T12:56:15;26.33;;;14.47;;
15228;SDS011;7717;47.792;12.076;2022-12-18T12:58:52;25.03;;;13.33;;
15228;SDS011;7717;47.792;12.076;2022-12-18T13:01:35;27.87;;;15.27;;
15228;SDS011;7717;47.792;12.076;2022-12-18T13:09:13;29.80;;;15.30;;
15228;SDS011;7717;47.792;12.076;2022-12-18T13:11:39;29.57;;;14.87;;
15228;SDS011;7717;47.792;12.076;2022-12-18T13:14:30;28.60;;;14.47;;
15228;SDS011;7717;47.792;12.076;2022-12-18T13:19:52;28.80;;;15.10;;
15228;SDS011;7717;47.792;12.076;2022-12-18T13:22:34;30.70;;;15.63;;
15228;SDS011;7717;47.792;12.076;2022-12-18T13:25:02;32.90;;;14.73;;
15228;SDS011;7717;47.792;12.076;2022-12-18T13:28:07;25.33;;;14.60;;
15228;SDS011;7717;47.792;12.076;2022-12-18T13:41:00;33.37;;;16.00;;
15228;SDS011;7717;47.792;12.076;2022-12-18T13:43:28;28.73;;;15.87;;
15228;SDS011;7717;47.792;12.076;2022-12-18T13:46:04;31.80;;;16.57;;
15228;SDS011;7717;47.792;12.076;2022-12-18T13:48:50;30.30;;;15.60;;
15228;SDS011;7717;47.792;12.076;2022-12-18T13:51:18;26.73;;;13.57;;
15228;SDS011;7717;47.792;12.076;2022-12-18T13:53:50;30.50;;;15.53;;
15228;SDS011;7717;47.792;12.076;2022-12-18T13:56:21;34.60;;;16.80;;
15228;SDS011;7717;47.792;12.076;2022-12-18T13:59:11;28.40;;;15.43;;
15228;SDS011;7717;47.792;12.076;2022-12-18T14:01:56;30.60;;;15.70;;
15228;SDS011;7717;47.792;12.076;2022-12-18T14:06:52;31.43;;;15.53;;
15228;SDS011;7717;47.792;12.076;2022-12-18T14:09:23;27.00;;;13.23;;
15228;SDS011;7717;47.792;12.076;2022-12-18T14:11:51;25.63;;;15.70;;
15228;SDS011;7717;47.792;12.076;2022-12-18T14:14:17;29.60;;;15.50;;
15228;SDS011;7717;47.792;12.076;2022-12-18T14:16:44;33.87;;;16.20;;
15228;SDS011;7717;47.792;12.076;2022-12-18T14:19:12;34.17;;;17.17;;
15228;SDS011;7717;47.792;12.076;2022-12-18T14:21:45;29.97;;;15.77;;
15228;SDS011;7717;47.792;12.076;2022-12-18T14:24:15;43.43;;;21.07;;
15228;SDS011;7717;47.792;12.076;2022-12-18T14:26:46;34.50;;;20.40;;
15228;SDS011;7717;47.792;12.076;2022-12-18T14:29:23;30.90;;;16.53;;
15228;SDS011;7717;47.792;12.076;2022-12-18T14:34:31;29.23;;;17.27;;
15228;SDS011;7717;47.792;12.076;2022-12-18T14:36:56;29.67;;;15.50;;
15228;SDS011;7717;47.792;12.076;2022-12-18T14:39:21;28.30;;;15.93;;
15228;SDS011;7717;47.792;12.076;2022-12-18T14:41:48;38.33;;;29.10;;
15228;SDS011;7717;47.792;12.076;2022-12-18T14:44:14;31.87;;;16.00;;
15228;SDS011;7717;47.792;12.076;2022-12-18T14:46:41;27.20;;;14.73;;
15228;SDS011;7717;47.792;12.076;2022-12-18T14:49:29;32.53;;;16.60;;
15228;SDS011;7717;47.792;12.076;2022-12-18T14:51:57;30.57;;;17.30;;
15228;SDS011;7717;47.792;12.076;2022-12-18T14:54:24;29.13;;;16.67;;
15228;SDS011;7717;47.792;12.076;2022-12-18T14:57:18;30.20;;;18.17;;
15228;SDS011;7717;47.792;12.076;2022-12-18T14:59:47;34.90;;;17.57;;
15228;SDS011;7717;47.792;12.076;2022-12-18T15:04:59;28.23;;;16.63;;
15228;SDS011;7717;47.792;12.076;2022-12-18T15:07:41;32.60;;;18.13;;
15228;SDS011;7717;47.792;12.076;2022-12-18T15:10:21;47.73;;;27.07;;
15228;SDS011;7717;47.792;12.076;2022-12-18T15:18:00;26.13;;;15.53;;
15228;SDS011;7717;47.792;12.076;2022-12-18T15:20:28;37.50;;;19.83;;
15228;SDS011;7717;47.792;12.076;2022-12-18T15:22:57;32.37;;;19.17;;
15228;SDS011;7717;47.792;12.076;2022-12-18T15:25:26;28.93;;;16.87;;
15228;SDS011;7717;47.792;12.076;2022-12-18T15:27:57;26.00;;;14.83;;
15228;SDS011;7717;47.792;12.076;2022-12-18T15:30:23;35.90;;;19.50;;
15228;SDS011;7717;47.792;12.076;2022-12-18T15:32:50;31.23;;;15.73;;
15228;SDS011;7717;47.792;12.076;2022-12-18T15:35:20;24.47;;;14.00;;
15228;SDS011;7717;47.792;12.076;2022-12-18T15:37:48;34.57;;;19.60;;
15228;SDS011;7717;47.792;12.076;2022-12-18T15:40:15;30.50;;;15.10;;
15228;SDS011;7717;47.792;12.076;2022-12-18T15:42:43;30.17;;;15.93;;
15228;SDS011;7717;47.792;12.076;2022-12-18T15:45:28;29.33;;;15.33;;
15228;SDS011;7717;47.792;12.076;2022-12-18T15:47:53;30.03;;;16.17;;
15228;SDS011;7717;47.792;12.076;2022-12-18T15:50:19;28.57;;;14.50;;
15228;SDS011;7717;47.792;12.076;2022-12-18T15:52:45;32.53;;;15.67;;
15228;SDS011;7717;47.792;12.076;2022-12-18T15:55:23;27.97;;;15.67;;
15228;SDS011;7717;47.792;12.076;2022-12-18T15:58:08;27.27;;;15.80;;
15228;SDS011;7717;47.792;12.076;2022-12-18T16:00:35;64.77;;;29.47;;
15228;SDS011;7717;47.792;12.076;2022-12-18T16:03:03;38.37;;;18.73;;
15228;SDS011;7717;47.792;12.076;2022-12-18T16:05:29;34.47;;;19.13;;
15228;SDS011;7717;47.792;12.076;2022-12-18T16:07:56;48.23;;;23.97;;
15228;SDS011;7717;47.792;12.076;2022-12-18T16:10:22;34.70;;;17.67;;
15228;SDS011;7717;47.792;12.076;2022-12-18T16:12:48;33.87;;;18.17;;
15228;SDS011;7717;47.792;12.076;2022-12-18T16:15:14;30.70;;;18.07;;
15228;SDS011;7717;47.792;12.076;2022-12-18T16:17:41;33.70;;;19.93;;
15228;SDS011;7717;47.792;12.076;2022-12-18T16:20:15;35.93;;;21.30;;
15228;SDS011;7717;47.792;12.076;2022-12-18T16:22:42;31.70;;;19.37;;